sensor_id;sensor_type;location;lat;lon;timestamp;temperature;humidity
18703;DHT22;9481;48.796;9.210;2022-09-29T00:01:30;13.80;54.80
18703;DHT22;9481;48.796;9.210;2022-09-29T00:03:56;13.80;54.80
18703;DHT22;9481;48.796;9.210;2022-09-29T00:06:22;13.90;54.80
18703;DHT22;9481;48.796;9.210;2022-09-29T00:08:48;13.90;54.80
18703;DHT22;9481;48.796;9.210;2022-09-29T00:11:16;13.90;54.80
18703;DHT22;9481;48.796;9.210;2022-09-29T00:13:44;13.90;54.70
18703;DHT22;9481;48.796;9.210;2022-09-29T00:16:11;13.90;54.70
18703;DHT22;9481;48.796;9.210;2022-09-29T00:18:38;13.90;54.70
18703;DHT22;9481;48.796;9.210;2022-09-29T00:21:09;13.90;54.70
18703;DHT22;9481;48.796;9.210;2022-09-29T00:23:38;13.90;55.50
18703;DHT22;9481;48.796;9.210;2022-09-29T00:26:06;13.90;54.70
18703;DHT22;9481;48.796;9.210;2022-09-29T00:28:37;13.90;54.60
18703;DHT22;9481;48.796;9.210;2022-09-29T00:31:05;13.90;54.70
18703;DHT22;9481;48.796;9.210;2022-09-29T00:33:34;13.90;54.70
18703;DHT22;9481;48.796;9.210;2022-09-29T00:36:04;13.90;54.70
18703;DHT22;9481;48.796;9.210;2022-09-29T00:38:32;13.90;54.70
18703;DHT22;9481;48.796;9.210;2022-09-29T00:40:58;13.90;54.70
18703;DHT22;9481;48.796;9.210;2022-09-29T00:43:52;13.90;54.60
18703;DHT22;9481;48.796;9.210;2022-09-29T00:46:44;13.90;54.90
18703;DHT22;9481;48.796;9.210;2022-09-29T00:49:22;13.90;54.80
18703;DHT22;9481;48.796;9.210;2022-09-29T00:51:57;13.90;54.70
18703;DHT22;9481;48.796;9.210;2022-09-29T00:54:35;13.90;54.80
18703;DHT22;9481;48.796;9.210;2022-09-29T00:57:06;13.90;54.80
18703;DHT22;9481;48.796;9.210;2022-09-29T00:59:43;13.90;54.70
18703;DHT22;9481;48.796;9.210;2022-09-29T01:02:16;13.90;54.80
18703;DHT22;9481;48.796;9.210;2022-09-29T01:04:43;13.90;54.80
18703;DHT22;9481;48.796;9.210;2022-09-29T01:07:11;13.90;54.80
18703;DHT22;9481;48.796;9.210;2022-09-29T01:09:39;13.80;54.70
18703;DHT22;9481;48.796;9.210;2022-09-29T01:12:07;13.80;54.80
18703;DHT22;9481;48.796;9.210;2022-09-29T01:14:34;13.80;54.70
18703;DHT22;9481;48.796;9.210;2022-09-29T01:17:02;13.80;54.80
18703;DHT22;9481;48.796;9.210;2022-09-29T01:19:51;13.80;54.90
18703;DHT22;9481;48.796;9.210;2022-09-29T01:26:37;13.80;55.80
18703;DHT22;9481;48.796;9.210;2022-09-29T01:29:51;13.80;55.20
18703;DHT22;9481;48.796;9.210;2022-09-29T01:35:40;13.80;55.10
18703;DHT22;9481;48.796;9.210;2022-09-29T01:41:18;13.80;55.10
18703;DHT22;9481;48.796;9.210;2022-09-29T01:44:31;13.80;55.10
18703;DHT22;9481;48.796;9.210;2022-09-29T01:47:02;13.80;55.30
18703;DHT22;9481;48.796;9.210;2022-09-29T01:49:39;13.80;55.20
18703;DHT22;9481;48.796;9.210;2022-09-29T01:52:19;13.80;55.20
18703;DHT22;9481;48.796;9.210;2022-09-29T01:54:54;13.80;55.20
18703;DHT22;9481;48.796;9.210;2022-09-29T01:57:44;13.80;55.10
18703;DHT22;9481;48.796;9.210;2022-09-29T02:00:17;13.80;55.20
18703;DHT22;9481;48.796;9.210;2022-09-29T02:02:54;13.80;55.00
18703;DHT22;9481;48.796;9.210;2022-09-29T02:07:57;13.80;55.20
18703;DHT22;9481;48.796;9.210;2022-09-29T02:10:36;13.80;55.20
18703;DHT22;9481;48.796;9.210;2022-09-29T02:13:08;13.80;55.30
18703;DHT22;9481;48.796;9.210;2022-09-29T02:15:38;13.80;55.20
18703;DHT22;9481;48.796;9.210;2022-09-29T02:18:21;13.80;55.20
18703;DHT22;9481;48.796;9.210;2022-09-29T02:20:50;13.80;55.40
18703;DHT22;9481;48.796;9.210;2022-09-29T02:23:16;13.80;55.20
18703;DHT22;9481;48.796;9.210;2022-09-29T02:25:43;13.80;55.20
18703;DHT22;9481;48.796;9.210;2022-09-29T02:28:12;13.80;55.20
18703;DHT22;9481;48.796;9.210;2022-09-29T02:30:38;13.80;55.20
18703;DHT22;9481;48.796;9.210;2022-09-29T02:33:04;13.80;55.20
18703;DHT22;9481;48.796;9.210;2022-09-29T02:35:53;13.80;55.30
18703;DHT22;9481;48.796;9.210;2022-09-29T02:38:47;13.80;55.70
18703;DHT22;9481;48.796;9.210;2022-09-29T02:53:16;13.90;55.90
18703;DHT22;9481;48.796;9.210;2022-09-29T02:59:09;13.90;56.00
18703;DHT22;9481;48.796;9.210;2022-09-29T03:01:53;13.90;55.70
18703;DHT22;9481;48.796;9.210;2022-09-29T03:04:22;13.90;55.90
18703;DHT22;9481;48.796;9.210;2022-09-29T03:06:51;13.90;55.60
18703;DHT22;9481;48.796;9.210;2022-09-29T03:09:17;13.90;55.70
18703;DHT22;9481;48.796;9.210;2022-09-29T03:11:43;13.90;55.70
18703;DHT22;9481;48.796;9.210;2022-09-29T03:14:09;13.90;55.70
18703;DHT22;9481;48.796;9.210;2022-09-29T03:16:35;13.90;55.70
18703;DHT22;9481;48.796;9.210;2022-09-29T03:19:02;13.90;55.70
18703;DHT22;9481;48.796;9.210;2022-09-29T03:21:29;13.90;55.60
18703;DHT22;9481;48.796;9.210;2022-09-29T03:24:00;13.90;55.50
18703;DHT22;9481;48.796;9.210;2022-09-29T03:26:26;13.90;55.50
18703;DHT22;9481;48.796;9.210;2022-09-29T03:28:52;13.90;55.50
18703;DHT22;9481;48.796;9.210;2022-09-29T03:31:18;13.90;55.40
18703;DHT22;9481;48.796;9.210;2022-09-29T03:33:44;13.90;55.40
18703;DHT22;9481;48.796;9.210;2022-09-29T03:36:10;13.90;55.40
18703;DHT22;9481;48.796;9.210;2022-09-29T03:38:38;13.90;55.30
18703;DHT22;9481;48.796;9.210;2022-09-29T03:41:05;13.90;55.30
18703;DHT22;9481;48.796;9.210;2022-09-29T03:43:31;13.80;55.20
18703;DHT22;9481;48.796;9.210;2022-09-29T03:45:57;13.80;55.30
18703;DHT22;9481;48.796;9.210;2022-09-29T03:48:23;13.80;55.20
18703;DHT22;9481;48.796;9.210;2022-09-29T03:50:51;13.70;55.10
18703;DHT22;9481;48.796;9.210;2022-09-29T03:53:18;13.70;55.10
18703;DHT22;9481;48.796;9.210;2022-09-29T03:55:48;13.70;55.10
18703;DHT22;9481;48.796;9.210;2022-09-29T03:58:15;13.70;55.10
18703;DHT22;9481;48.796;9.210;2022-09-29T04:00:41;13.60;55.00
18703;DHT22;9481;48.796;9.210;2022-09-29T04:03:08;13.60;55.00
18703;DHT22;9481;48.796;9.210;2022-09-29T04:05:34;13.60;55.00
18703;DHT22;9481;48.796;9.210;2022-09-29T04:08:06;13.50;55.10
18703;DHT22;9481;48.796;9.210;2022-09-29T04:10:36;13.50;55.00
18703;DHT22;9481;48.796;9.210;2022-09-29T04:13:02;13.50;55.00
18703;DHT22;9481;48.796;9.210;2022-09-29T04:15:29;13.50;55.00
18703;DHT22;9481;48.796;9.210;2022-09-29T04:17:55;13.40;54.90
18703;DHT22;9481;48.796;9.210;2022-09-29T04:20:21;13.40;54.90
18703;DHT22;9481;48.796;9.210;2022-09-29T04:22:46;13.40;54.90
18703;DHT22;9481;48.796;9.210;2022-09-29T04:25:12;13.40;55.00
18703;DHT22;9481;48.796;9.210;2022-09-29T04:27:38;13.30;54.90
18703;DHT22;9481;48.796;9.210;2022-09-29T04:30:04;13.30;55.00
18703;DHT22;9481;48.796;9.210;2022-09-29T04:32:31;13.30;55.00
18703;DHT22;9481;48.796;9.210;2022-09-29T04:34:57;13.30;55.10
18703;DHT22;9481;48.796;9.210;2022-09-29T04:37:23;13.30;55.10
18703;DHT22;9481;48.796;9.210;2022-09-29T04:39:49;13.30;55.20
18703;DHT22;9481;48.796;9.210;2022-09-29T04:42:17;13.30;55.20
18703;DHT22;9481;48.796;9.210;2022-09-29T04:44:43;13.20;55.80
18703;DHT22;9481;48.796;9.210;2022-09-29T04:47:09;13.20;55.00
18703;DHT22;9481;48.796;9.210;2022-09-29T04:49:35;13.20;55.00
18703;DHT22;9481;48.796;9.210;2022-09-29T04:52:02;13.20;56.80
18703;DHT22;9481;48.796;9.210;2022-09-29T04:54:32;13.30;57.90
18703;DHT22;9481;48.796;9.210;2022-09-29T04:56:59;13.40;57.20
18703;DHT22;9481;48.796;9.210;2022-09-29T04:59:28;13.50;57.10
18703;DHT22;9481;48.796;9.210;2022-09-29T05:01:54;13.70;56.90
18703;DHT22;9481;48.796;9.210;2022-09-29T05:04:20;13.80;56.70
18703;DHT22;9481;48.796;9.210;2022-09-29T05:06:46;13.90;56.60
18703;DHT22;9481;48.796;9.210;2022-09-29T05:09:12;14.00;56.40
18703;DHT22;9481;48.796;9.210;2022-09-29T05:11:38;14.10;55.90
18703;DHT22;9481;48.796;9.210;2022-09-29T05:14:04;14.10;55.20
18703;DHT22;9481;48.796;9.210;2022-09-29T05:16:30;14.10;54.80
18703;DHT22;9481;48.796;9.210;2022-09-29T05:18:57;14.10;54.60
18703;DHT22;9481;48.796;9.210;2022-09-29T05:21:23;14.10;54.60
18703;DHT22;9481;48.796;9.210;2022-09-29T05:23:49;14.00;54.40
18703;DHT22;9481;48.796;9.210;2022-09-29T05:26:15;13.90;54.30
18703;DHT22;9481;48.796;9.210;2022-09-29T05:28:45;13.90;54.40
18703;DHT22;9481;48.796;9.210;2022-09-29T05:31:13;13.80;54.50
18703;DHT22;9481;48.796;9.210;2022-09-29T05:33:39;13.70;54.40
18703;DHT22;9481;48.796;9.210;2022-09-29T05:36:08;13.70;54.50
18703;DHT22;9481;48.796;9.210;2022-09-29T05:38:35;13.60;54.60
18703;DHT22;9481;48.796;9.210;2022-09-29T05:41:05;13.60;54.70
18703;DHT22;9481;48.796;9.210;2022-09-29T05:43:33;13.50;54.70
18703;DHT22;9481;48.796;9.210;2022-09-29T05:46:00;13.50;54.80
18703;DHT22;9481;48.796;9.210;2022-09-29T05:48:27;13.50;54.90
18703;DHT22;9481;48.796;9.210;2022-09-29T05:50:55;13.40;54.90
18703;DHT22;9481;48.796;9.210;2022-09-29T05:53:22;13.40;55.00
18703;DHT22;9481;48.796;9.210;2022-09-29T05:55:48;13.40;55.10
18703;DHT22;9481;48.796;9.210;2022-09-29T05:58:14;13.40;55.20
18703;DHT22;9481;48.796;9.210;2022-09-29T06:00:40;13.40;55.20
18703;DHT22;9481;48.796;9.210;2022-09-29T06:05:39;13.40;55.40
18703;DHT22;9481;48.796;9.210;2022-09-29T06:08:05;13.40;55.50
18703;DHT22;9481;48.796;9.210;2022-09-29T06:10:32;13.40;55.60
18703;DHT22;9481;48.796;9.210;2022-09-29T06:12:59;13.40;55.60
18703;DHT22;9481;48.796;9.210;2022-09-29T06:15:27;13.40;55.50
18703;DHT22;9481;48.796;9.210;2022-09-29T06:18:02;13.40;55.50
18703;DHT22;9481;48.796;9.210;2022-09-29T06:20:27;13.50;56.00
18703;DHT22;9481;48.796;9.210;2022-09-29T06:22:54;13.50;55.60
18703;DHT22;9481;48.796;9.210;2022-09-29T06:25:21;13.50;55.60
18703;DHT22;9481;48.796;9.210;2022-09-29T06:27:47;13.50;55.60
18703;DHT22;9481;48.796;9.210;2022-09-29T06:30:14;13.50;55.70
18703;DHT22;9481;48.796;9.210;2022-09-29T06:32:40;13.50;55.70
18703;DHT22;9481;48.796;9.210;2022-09-29T06:35:06;13.60;55.80
18703;DHT22;9481;48.796;9.210;2022-09-29T06:37:52;13.60;55.80
18703;DHT22;9481;48.796;9.210;2022-09-29T06:40:21;13.60;55.80
18703;DHT22;9481;48.796;9.210;2022-09-29T06:42:48;13.70;55.80
18703;DHT22;9481;48.796;9.210;2022-09-29T06:45:14;13.70;55.60
18703;DHT22;9481;48.796;9.210;2022-09-29T06:47:39;13.70;55.70
18703;DHT22;9481;48.796;9.210;2022-09-29T06:50:05;13.70;55.70
18703;DHT22;9481;48.796;9.210;2022-09-29T06:52:31;13.70;55.60
18703;DHT22;9481;48.796;9.210;2022-09-29T06:54:57;13.70;55.60
18703;DHT22;9481;48.796;9.210;2022-09-29T06:57:22;13.70;55.60
18703;DHT22;9481;48.796;9.210;2022-09-29T06:59:49;13.70;55.60
18703;DHT22;9481;48.796;9.210;2022-09-29T07:02:14;13.70;55.60
18703;DHT22;9481;48.796;9.210;2022-09-29T07:04:40;13.70;55.50
18703;DHT22;9481;48.796;9.210;2022-09-29T07:07:06;13.70;55.50
18703;DHT22;9481;48.796;9.210;2022-09-29T07:09:32;13.80;55.70
18703;DHT22;9481;48.796;9.210;2022-09-29T07:11:57;13.80;55.80
18703;DHT22;9481;48.796;9.210;2022-09-29T07:14:23;13.80;55.70
18703;DHT22;9481;48.796;9.210;2022-09-29T07:16:50;13.80;55.80
18703;DHT22;9481;48.796;9.210;2022-09-29T07:19:17;13.90;56.00
18703;DHT22;9481;48.796;9.210;2022-09-29T07:21:45;13.90;56.00
18703;DHT22;9481;48.796;9.210;2022-09-29T07:24:11;13.90;56.00
18703;DHT22;9481;48.796;9.210;2022-09-29T07:26:37;14.00;56.00
18703;DHT22;9481;48.796;9.210;2022-09-29T07:29:03;14.00;56.00
18703;DHT22;9481;48.796;9.210;2022-09-29T07:31:29;14.10;56.10
18703;DHT22;9481;48.796;9.210;2022-09-29T07:33:55;14.10;56.20
18703;DHT22;9481;48.796;9.210;2022-09-29T07:36:21;14.10;56.10
18703;DHT22;9481;48.796;9.210;2022-09-29T07:38:48;14.20;55.90
18703;DHT22;9481;48.796;9.210;2022-09-29T07:41:16;14.20;55.80
18703;DHT22;9481;48.796;9.210;2022-09-29T07:43:43;14.20;55.80
18703;DHT22;9481;48.796;9.210;2022-09-29T07:46:09;14.20;55.80
18703;DHT22;9481;48.796;9.210;2022-09-29T07:48:36;14.20;55.80
18703;DHT22;9481;48.796;9.210;2022-09-29T07:53:40;14.20;56.00
18703;DHT22;9481;48.796;9.210;2022-09-29T07:56:12;14.30;56.10
18703;DHT22;9481;48.796;9.210;2022-09-29T07:58:39;14.30;56.10
18703;DHT22;9481;48.796;9.210;2022-09-29T08:01:08;14.40;56.10
18703;DHT22;9481;48.796;9.210;2022-09-29T08:03:42;14.40;56.00
18703;DHT22;9481;48.796;9.210;2022-09-29T08:06:11;14.50;55.90
18703;DHT22;9481;48.796;9.210;2022-09-29T08:08:38;14.50;55.90
18703;DHT22;9481;48.796;9.210;2022-09-29T08:11:07;14.60;56.00
18703;DHT22;9481;48.796;9.210;2022-09-29T08:13:37;14.60;55.90
18703;DHT22;9481;48.796;9.210;2022-09-29T08:16:05;14.60;55.80
18703;DHT22;9481;48.796;9.210;2022-09-29T08:18:34;14.70;55.70
18703;DHT22;9481;48.796;9.210;2022-09-29T08:21:00;14.70;55.60
18703;DHT22;9481;48.796;9.210;2022-09-29T08:23:27;14.70;55.50
18703;DHT22;9481;48.796;9.210;2022-09-29T08:26:00;14.70;55.60
18703;DHT22;9481;48.796;9.210;2022-09-29T08:28:31;14.80;55.80
18703;DHT22;9481;48.796;9.210;2022-09-29T08:31:18;14.80;55.60
18703;DHT22;9481;48.796;9.210;2022-09-29T08:33:49;14.90;55.40
18703;DHT22;9481;48.796;9.210;2022-09-29T08:36:17;14.90;55.40
18703;DHT22;9481;48.796;9.210;2022-09-29T08:38:49;14.90;55.40
18703;DHT22;9481;48.796;9.210;2022-09-29T08:44:51;15.00;55.80
18703;DHT22;9481;48.796;9.210;2022-09-29T08:47:35;15.10;55.90
18703;DHT22;9481;48.796;9.210;2022-09-29T08:50:10;15.20;55.90
18703;DHT22;9481;48.796;9.210;2022-09-29T08:52:59;15.30;56.20
18703;DHT22;9481;48.796;9.210;2022-09-29T08:55:40;15.40;56.10
18703;DHT22;9481;48.796;9.210;2022-09-29T08:58:12;15.60;55.90
18703;DHT22;9481;48.796;9.210;2022-09-29T09:00:59;15.70;55.80
18703;DHT22;9481;48.796;9.210;2022-09-29T09:17:57;16.40;54.50
18703;DHT22;9481;48.796;9.210;2022-09-29T09:21:07;16.40;54.50
18703;DHT22;9481;48.796;9.210;2022-09-29T09:23:56;16.50;53.70
18703;DHT22;9481;48.796;9.210;2022-09-29T09:26:35;16.60;53.40
18703;DHT22;9481;48.796;9.210;2022-09-29T09:29:13;16.60;53.50
18703;DHT22;9481;48.796;9.210;2022-09-29T09:31:55;16.60;53.20
18703;DHT22;9481;48.796;9.210;2022-09-29T09:34:46;16.60;53.20
18703;DHT22;9481;48.796;9.210;2022-09-29T09:37:20;16.60;52.90
18703;DHT22;9481;48.796;9.210;2022-09-29T09:43:08;16.50;52.90
18703;DHT22;9481;48.796;9.210;2022-09-29T09:45:50;16.50;52.70
18703;DHT22;9481;48.796;9.210;2022-09-29T09:51:28;16.50;53.10
18703;DHT22;9481;48.796;9.210;2022-09-29T09:54:08;16.50;53.20
18703;DHT22;9481;48.796;9.210;2022-09-29T09:57:06;16.50;53.10
18703;DHT22;9481;48.796;9.210;2022-09-29T10:03:02;16.60;53.30
18703;DHT22;9481;48.796;9.210;2022-09-29T10:05:40;16.60;53.40
18703;DHT22;9481;48.796;9.210;2022-09-29T10:08:31;16.70;53.20
18703;DHT22;9481;48.796;9.210;2022-09-29T10:14:01;16.80;53.10
18703;DHT22;9481;48.796;9.210;2022-09-29T10:16:37;16.90;52.70
18703;DHT22;9481;48.796;9.210;2022-09-29T10:19:10;17.00;52.90
18703;DHT22;9481;48.796;9.210;2022-09-29T10:21:42;17.00;52.90
18703;DHT22;9481;48.796;9.210;2022-09-29T10:24:29;17.00;52.80
18703;DHT22;9481;48.796;9.210;2022-09-29T10:26:59;17.10;52.40
18703;DHT22;9481;48.796;9.210;2022-09-29T10:29:41;17.20;52.90
18703;DHT22;9481;48.796;9.210;2022-09-29T10:32:11;17.30;52.40
18703;DHT22;9481;48.796;9.210;2022-09-29T10:34:41;17.30;52.70
18703;DHT22;9481;48.796;9.210;2022-09-29T10:37:31;17.40;52.70
18703;DHT22;9481;48.796;9.210;2022-09-29T10:40:17;17.40;51.30
18703;DHT22;9481;48.796;9.210;2022-09-29T10:42:47;17.50;51.60
18703;DHT22;9481;48.796;9.210;2022-09-29T10:50:24;17.60;51.60
18703;DHT22;9481;48.796;9.210;2022-09-29T10:53:00;17.60;51.60
18703;DHT22;9481;48.796;9.210;2022-09-29T10:55:34;17.60;51.60
18703;DHT22;9481;48.796;9.210;2022-09-29T10:58:32;17.60;51.10
18703;DHT22;9481;48.796;9.210;2022-09-29T11:01:12;17.70;50.80
18703;DHT22;9481;48.796;9.210;2022-09-29T11:03:49;17.70;50.90
18703;DHT22;9481;48.796;9.210;2022-09-29T11:06:25;17.80;51.20
18703;DHT22;9481;48.796;9.210;2022-09-29T11:11:37;18.00;51.90
18703;DHT22;9481;48.796;9.210;2022-09-29T11:14:04;18.20;52.70
18703;DHT22;9481;48.796;9.210;2022-09-29T11:16:36;18.40;53.60
18703;DHT22;9481;48.796;9.210;2022-09-29T11:19:13;18.60;53.70
18703;DHT22;9481;48.796;9.210;2022-09-29T11:24:54;18.90;53.30
18703;DHT22;9481;48.796;9.210;2022-09-29T11:27:51;19.10;52.80
18703;DHT22;9481;48.796;9.210;2022-09-29T11:30:30;19.40;52.60
18703;DHT22;9481;48.796;9.210;2022-09-29T11:36:16;19.70;49.80
18703;DHT22;9481;48.796;9.210;2022-09-29T11:45:07;19.80;49.00
18703;DHT22;9481;48.796;9.210;2022-09-29T11:51:08;19.90;47.50
18703;DHT22;9481;48.796;9.210;2022-09-29T11:54:36;20.00;48.10
18703;DHT22;9481;48.796;9.210;2022-09-29T11:57:16;20.10;47.50
18703;DHT22;9481;48.796;9.210;2022-09-29T12:17:38;21.10;45.20
18703;DHT22;9481;48.796;9.210;2022-09-29T12:22:55;21.00;45.00
18703;DHT22;9481;48.796;9.210;2022-09-29T12:25:27;21.00;45.80
18703;DHT22;9481;48.796;9.210;2022-09-29T12:28:20;21.10;45.70
18703;DHT22;9481;48.796;9.210;2022-09-29T12:30:59;21.20;45.40
18703;DHT22;9481;48.796;9.210;2022-09-29T12:33:36;21.30;45.40
18703;DHT22;9481;48.796;9.210;2022-09-29T12:36:24;21.30;44.70
18703;DHT22;9481;48.796;9.210;2022-09-29T12:39:33;21.40;44.50
18703;DHT22;9481;48.796;9.210;2022-09-29T12:49:20;21.50;43.90
18703;DHT22;9481;48.796;9.210;2022-09-29T12:51:48;21.50;44.00
18703;DHT22;9481;48.796;9.210;2022-09-29T12:54:30;21.60;44.00
18703;DHT22;9481;48.796;9.210;2022-09-29T12:57:10;21.60;42.90
18703;DHT22;9481;48.796;9.210;2022-09-29T13:00:04;21.60;43.10
18703;DHT22;9481;48.796;9.210;2022-09-29T13:05:46;21.50;42.30
18703;DHT22;9481;48.796;9.210;2022-09-29T13:09:46;21.40;42.50
18703;DHT22;9481;48.796;9.210;2022-09-29T13:15:07;21.10;42.50
18703;DHT22;9481;48.796;9.210;2022-09-29T13:18:01;21.00;41.50
18703;DHT22;9481;48.796;9.210;2022-09-29T13:21:28;20.90;42.40
18703;DHT22;9481;48.796;9.210;2022-09-29T13:27:01;20.60;42.10
18703;DHT22;9481;48.796;9.210;2022-09-29T13:29:43;20.50;41.80
18703;DHT22;9481;48.796;9.210;2022-09-29T13:32:32;20.40;41.60
18703;DHT22;9481;48.796;9.210;2022-09-29T13:35:02;20.20;42.20
18703;DHT22;9481;48.796;9.210;2022-09-29T13:37:45;20.10;42.10
18703;DHT22;9481;48.796;9.210;2022-09-29T13:40:21;20.00;41.70
18703;DHT22;9481;48.796;9.210;2022-09-29T13:42:54;19.90;41.90
18703;DHT22;9481;48.796;9.210;2022-09-29T13:47:54;19.70;42.70
18703;DHT22;9481;48.796;9.210;2022-09-29T13:50:44;19.60;43.00
18703;DHT22;9481;48.796;9.210;2022-09-29T13:55:53;19.60;43.30
18703;DHT22;9481;48.796;9.210;2022-09-29T13:58:30;19.60;42.80
18703;DHT22;9481;48.796;9.210;2022-09-29T14:01:00;19.50;43.20
18703;DHT22;9481;48.796;9.210;2022-09-29T14:03:37;19.50;43.40
18703;DHT22;9481;48.796;9.210;2022-09-29T14:06:12;19.50;43.10
18703;DHT22;9481;48.796;9.210;2022-09-29T14:11:39;19.50;43.50
18703;DHT22;9481;48.796;9.210;2022-09-29T14:14:27;19.50;43.70
18703;DHT22;9481;48.796;9.210;2022-09-29T14:33:03;19.40;43.70
18703;DHT22;9481;48.796;9.210;2022-09-29T14:38:26;19.30;43.70
18703;DHT22;9481;48.796;9.210;2022-09-29T14:43:47;19.20;43.90
18703;DHT22;9481;48.796;9.210;2022-09-29T14:46:39;19.20;43.90
18703;DHT22;9481;48.796;9.210;2022-09-29T14:50:13;19.20;43.70
18703;DHT22;9481;48.796;9.210;2022-09-29T14:53:33;19.10;43.60
18703;DHT22;9481;48.796;9.210;2022-09-29T14:56:45;19.10;44.60
18703;DHT22;9481;48.796;9.210;2022-09-29T15:02:23;19.00;44.00
18703;DHT22;9481;48.796;9.210;2022-09-29T15:04:51;18.90;44.20
18703;DHT22;9481;48.796;9.210;2022-09-29T15:07:19;18.90;44.30
18703;DHT22;9481;48.796;9.210;2022-09-29T15:09:50;18.90;44.20
18703;DHT22;9481;48.796;9.210;2022-09-29T15:12:24;18.90;44.40
18703;DHT22;9481;48.796;9.210;2022-09-29T15:14:53;18.80;44.50
18703;DHT22;9481;48.796;9.210;2022-09-29T15:17:49;18.80;44.60
18703;DHT22;9481;48.796;9.210;2022-09-29T15:20:31;18.80;44.40
18703;DHT22;9481;48.796;9.210;2022-09-29T15:25:53;18.70;44.60
18703;DHT22;9481;48.796;9.210;2022-09-29T15:28:30;18.70;44.90
18703;DHT22;9481;48.796;9.210;2022-09-29T15:31:03;18.60;44.70
18703;DHT22;9481;48.796;9.210;2022-09-29T15:33:37;18.60;44.90
18703;DHT22;9481;48.796;9.210;2022-09-29T15:36:07;18.60;44.90
18703;DHT22;9481;48.796;9.210;2022-09-29T15:38:49;18.50;44.90
18703;DHT22;9481;48.796;9.210;2022-09-29T15:41:25;18.50;45.10
18703;DHT22;9481;48.796;9.210;2022-09-29T15:46:39;18.50;45.30
18703;DHT22;9481;48.796;9.210;2022-09-29T15:49:23;18.50;45.20
18703;DHT22;9481;48.796;9.210;2022-09-29T15:54:37;18.40;45.60
18703;DHT22;9481;48.796;9.210;2022-09-29T15:57:06;18.40;45.60
18703;DHT22;9481;48.796;9.210;2022-09-29T15:59:52;18.40;45.70
18703;DHT22;9481;48.796;9.210;2022-09-29T16:02:29;18.30;45.70
18703;DHT22;9481;48.796;9.210;2022-09-29T16:05:10;18.30;45.70
18703;DHT22;9481;48.796;9.210;2022-09-29T16:07:51;18.30;45.60
18703;DHT22;9481;48.796;9.210;2022-09-29T16:10:27;18.30;45.70
18703;DHT22;9481;48.796;9.210;2022-09-29T16:13:01;18.20;45.70
18703;DHT22;9481;48.796;9.210;2022-09-29T16:15:42;18.20;45.80
18703;DHT22;9481;48.796;9.210;2022-09-29T16:21:08;18.10;45.90
18703;DHT22;9481;48.796;9.210;2022-09-29T16:23:47;18.10;45.90
18703;DHT22;9481;48.796;9.210;2022-09-29T16:26:51;18.10;46.10
18703;DHT22;9481;48.796;9.210;2022-09-29T16:29:23;18.10;46.10
18703;DHT22;9481;48.796;9.210;2022-09-29T16:31:51;18.00;46.00
18703;DHT22;9481;48.796;9.210;2022-09-29T16:37:01;17.90;46.30
18703;DHT22;9481;48.796;9.210;2022-09-29T16:39:39;17.90;46.30
18703;DHT22;9481;48.796;9.210;2022-09-29T16:42:19;17.90;46.40
18703;DHT22;9481;48.796;9.210;2022-09-29T16:44:55;17.90;46.60
18703;DHT22;9481;48.796;9.210;2022-09-29T16:47:23;17.80;46.50
18703;DHT22;9481;48.796;9.210;2022-09-29T16:50:03;17.80;46.70
18703;DHT22;9481;48.796;9.210;2022-09-29T16:52:43;17.70;46.90
18703;DHT22;9481;48.796;9.210;2022-09-29T16:55:24;17.70;46.90
18703;DHT22;9481;48.796;9.210;2022-09-29T16:58:00;17.70;47.10
18703;DHT22;9481;48.796;9.210;2022-09-29T17:00:27;17.70;47.10
18703;DHT22;9481;48.796;9.210;2022-09-29T17:02:55;17.60;47.00
18703;DHT22;9481;48.796;9.210;2022-09-29T17:05:29;17.60;47.20
18703;DHT22;9481;48.796;9.210;2022-09-29T17:08:01;17.60;47.20
18703;DHT22;9481;48.796;9.210;2022-09-29T17:10:29;17.50;47.10
18703;DHT22;9481;48.796;9.210;2022-09-29T17:12:55;17.50;47.20
18703;DHT22;9481;48.796;9.210;2022-09-29T17:15:22;17.50;47.30
18703;DHT22;9481;48.796;9.210;2022-09-29T17:17:49;17.40;47.20
18703;DHT22;9481;48.796;9.210;2022-09-29T17:20:19;17.40;47.40
18703;DHT22;9481;48.796;9.210;2022-09-29T17:22:53;17.40;47.40
18703;DHT22;9481;48.796;9.210;2022-09-29T17:25:21;17.30;47.20
18703;DHT22;9481;48.796;9.210;2022-09-29T17:27:47;17.30;47.20
18703;DHT22;9481;48.796;9.210;2022-09-29T17:30:32;17.30;47.20
18703;DHT22;9481;48.796;9.210;2022-09-29T17:32:58;17.20;47.10
18703;DHT22;9481;48.796;9.210;2022-09-29T17:35:32;17.20;47.10
18703;DHT22;9481;48.796;9.210;2022-09-29T17:38:00;17.10;47.30
18703;DHT22;9481;48.796;9.210;2022-09-29T17:43:20;17.10;47.40
18703;DHT22;9481;48.796;9.210;2022-09-29T17:45:49;17.00;47.30
18703;DHT22;9481;48.796;9.210;2022-09-29T17:48:15;17.00;47.30
18703;DHT22;9481;48.796;9.210;2022-09-29T17:50:45;17.00;47.30
18703;DHT22;9481;48.796;9.210;2022-09-29T17:53:13;17.00;47.40
18703;DHT22;9481;48.796;9.210;2022-09-29T17:55:45;16.90;47.30
18703;DHT22;9481;48.796;9.210;2022-09-29T17:58:14;16.90;47.40
18703;DHT22;9481;48.796;9.210;2022-09-29T18:00:42;16.90;47.40
18703;DHT22;9481;48.796;9.210;2022-09-29T18:03:11;16.90;48.10
18703;DHT22;9481;48.796;9.210;2022-09-29T18:05:40;16.80;47.40
18703;DHT22;9481;48.796;9.210;2022-09-29T18:08:14;16.80;47.50
18703;DHT22;9481;48.796;9.210;2022-09-29T18:10:55;16.80;47.50
18703;DHT22;9481;48.796;9.210;2022-09-29T18:13:25;16.80;47.60
18703;DHT22;9481;48.796;9.210;2022-09-29T18:15:52;16.80;47.70
18703;DHT22;9481;48.796;9.210;2022-09-29T18:18:23;16.80;47.80
18703;DHT22;9481;48.796;9.210;2022-09-29T18:20:49;16.70;47.70
18703;DHT22;9481;48.796;9.210;2022-09-29T18:23:17;16.70;47.80
18703;DHT22;9481;48.796;9.210;2022-09-29T18:25:45;16.70;47.80
18703;DHT22;9481;48.796;9.210;2022-09-29T18:28:13;16.70;47.90
18703;DHT22;9481;48.796;9.210;2022-09-29T18:30:41;16.70;47.90
18703;DHT22;9481;48.796;9.210;2022-09-29T18:33:11;16.70;47.90
18703;DHT22;9481;48.796;9.210;2022-09-29T18:35:40;16.70;48.00
18703;DHT22;9481;48.796;9.210;2022-09-29T18:38:09;16.70;48.10
18703;DHT22;9481;48.796;9.210;2022-09-29T18:40:36;16.60;48.10
18703;DHT22;9481;48.796;9.210;2022-09-29T18:43:03;16.60;48.10
18703;DHT22;9481;48.796;9.210;2022-09-29T18:45:34;16.60;48.10
18703;DHT22;9481;48.796;9.210;2022-09-29T18:48:05;16.60;48.20
18703;DHT22;9481;48.796;9.210;2022-09-29T18:50:35;16.60;48.30
18703;DHT22;9481;48.796;9.210;2022-09-29T18:53:07;16.60;48.30
18703;DHT22;9481;48.796;9.210;2022-09-29T18:55:37;16.60;48.30
18703;DHT22;9481;48.796;9.210;2022-09-29T18:58:03;16.60;48.50
18703;DHT22;9481;48.796;9.210;2022-09-29T19:00:34;16.60;48.60
18703;DHT22;9481;48.796;9.210;2022-09-29T19:03:04;16.60;48.60
18703;DHT22;9481;48.796;9.210;2022-09-29T19:05:31;16.60;48.60
18703;DHT22;9481;48.796;9.210;2022-09-29T19:08:03;16.60;48.60
18703;DHT22;9481;48.796;9.210;2022-09-29T19:10:31;16.60;48.70
18703;DHT22;9481;48.796;9.210;2022-09-29T19:12:59;16.60;48.70
18703;DHT22;9481;48.796;9.210;2022-09-29T19:15:29;16.60;49.50
18703;DHT22;9481;48.796;9.210;2022-09-29T19:17:55;16.50;48.70